Logo AVAMET
Benvolgut visitant, si us plau, ingressa Recuperar contrasenya
AVAMET paisatges

Vilallonga el Pla de la Llacuna

Dades diàries. Acumulats / Últims 30 dies disponibles

Data Temperatura (°C) Humitat rel. (%) Pressió rel. (hPa) Vent (km/h) Precipitació
Mínima Mitjana Màxima Amplitud
tèrmica
Mínima Mitjana Màxima Mínima Mitjana Màxima Predom. Mitjana Ràfega
màxima
Total
(mm)
Índex-n
Mínima Mitjana Màxima Mínima Mitjana Màxima n
0 a 1
P0 max
mm 5'
Dades mensuals acumulades fins l'últim dia disponible
09/2020 12,1 16,7 21,4 20,8 20,7 25,5 29,7 17,6 28 68 98 1.008 1.016 1.024   3,1 46,7 33,6
Dades anuals acumulades fins l'últim dia disponible
2020 3,0 13,2 25,1 17,4 7,2 22,1 37,9 34,9 20 73 100 1.001 1.017 1.034   3,8 91,7 973,4
Últims 30 dies disponibles
28-09-2020 12,1     16,0     21,6 9,5 36 51 69 1.013 1.014 1.016 SSE 1,5 16,1 0,0
27-09-2020 14,6     18,3     20,7 6,1 38 52 69 1.008 1.010 1.014 SSO 5,7 43,5 0,0
26-09-2020 12,8     17,8     23,2 10,4 32 42 52 1.011 1.015 1.019 OSO 4,2 40,2 0,0
25-09-2020 16,4     19,4     23,6 7,2 28 52 72 1.012 1.014 1.019 SO 7,4 46,7 0,0
24-09-2020 20,2     23,8     28,8 8,6 42 54 65 1.011 1.012 1.013 O 9,4 38,6 0,0
23-09-2020 21,4     24,1     29,3 7,9 32 55 68 1.009 1.011 1.012 SSO 3,4 22,5 0,0
22-09-2020 17,1     21,7     25,6 8,5 51 65 82 1.011 1.013 1.015 SE 1,8 20,9 0,0
21-09-2020 19,9     22,2     26,9 7,0 46 61 68 1.013 1.015 1.016 SO 6,5 25,7 0,0
20-09-2020 17,9     22,0     26,4 8,5 45 59 73 1.014 1.015 1.016 OSO 6,9 32,2 0,0
19-09-2020 17,0     21,7     26,8 9,8 41 65 87 1.013 1.015 1.016 OSO 4,5 29,0 0,0
18-09-2020 16,9     20,7     24,5 7,6 57 72 92 1.012 1.014 1.016 SSO 6,9 45,1 4,6 0,42 0,80
17-09-2020 19,1     22,3     27,4 8,3 52 67 88 1.013 1.015 1.017 SSE 0,8 19,3 0,0
16-09-2020 17,3     22,6     27,6 10,3 62 75 92 1.015 1.017 1.019 ESE 0,9 12,9 0,0
15-09-2020 17,9     22,2     26,6 8,7 70 78 90 1.018 1.020 1.023 ESE 1,2 17,7 0,0
14-09-2020 16,9     21,4     26,2 9,3 61 76 92 1.020 1.022 1.023 ESE 1,2 19,3 0,0
13-09-2020 16,9     22,2     27,3 10,4 49 68 89 1.020 1.021 1.023 ESE 1,4 17,7 0,0
12-09-2020 17,2     22,8     27,8 10,6 49 69 91 1.014 1.017 1.020 SE 1,5 16,1 0,0
11-09-2020 16,9     23,3     29,7 12,8 42 58 74 1.012 1.014 1.016 S 1,8 20,9 0,0
10-09-2020 15,3     19,9     24,9 9,6 59 76 91 1.015 1.018 1.020 SE 1,6 17,7 0,0
09-09-2020 15,9     18,9     23,1 7,2 69 81 93 1.019 1.020 1.022 SSE 3,3 29,0 1,2
08-09-2020 15,1     18,1     21,8 6,7 56 80 98 1.020 1.021 1.023 ENE 3,1 24,1 23,4 0,42 7,70
07-09-2020 16,3     18,0     21,0 4,7 79 92 96 1.014 1.016 1.020 E 1,9 22,5 4,2 0,23 0,80
06-09-2020 16,3     20,8     25,8 9,5 65 82 96 1.014 1.016 1.018 ESE 1,6 17,7 0,2
05-09-2020 16,0     20,6     25,7 9,7 66 78 92 1.017 1.019 1.022 ESE 1,6 20,9 0,0
04-09-2020 16,2     21,0     25,3 9,1 57 68 83 1.021 1.022 1.024 SSE 2,1 24,1 0,0
03-09-2020 16,6     21,5     26,9 10,3 54 71 90 1.019 1.020 1.023 SSE 2,2 22,5 0,0
02-09-2020 16,1     20,4     24,9 8,8 53 75 89 1.012 1.015 1.019 SE 1,8 19,3 0,0
01-09-2020 15,1     20,0     24,0 8,9 62 73 83 1.010 1.013 1.016 SE 1,7 17,7 0,0
31-08-2020 14,7     19,4     24,0 9,3 53 67 86 1.015 1.017 1.019 SSE 3,1 24,1 0,0
30-08-2020 14,5     18,4     22,2 7,7 49 63 87 1.008 1.012 1.016 S 3,7 20,9 0,0
Últims 13 mesos disponibles
08/2020 14,5 20,1 25,1 25,1 22,2 30,3 37,9 23,4 35 69 92 1.003 1.013 1.018 ESE 2,6 41,8 21,6
07/2020 16,3 18,8 22,1 23,6 24,8 28,9 34,8 18,5 56 75 90 1.010 1.015 1.019 E 2,3 30,6 18,0
06/2020 11,7 15,8 19,9 21,1 18,0 26,5 30,2 18,5 47 70 92 1.004 1.013 1.020 SE 3,3 66,0 35,0
05/2020 10,1 13,8 18,7 18,6 15,2 23,5 30,2 20,1 50 70 92 1.004 1.016 1.026 SE 3,6 57,9 134,2
04/2020 5,8 9,5 14,9 12,8 11,4 16,6 22,5 16,7 51 82 99 1.005 1.015 1.025 E 3,7 49,9 128,6
03/2020 4,8 8,5 15,2 11,7 7,2 15,5 24,9 20,1 41 76 99 1.006 1.016 1.026 ENE 5,5 91,7 130,6
02/2020 4,2 9,3 14,4 13,7 11,4 18,5 24,3 20,1 34 66 96 1.013 1.025 1.032 O 4,7 59,5 8,6
01/2020 3,0 6,2 11,9 9,5 8,4 13,6 18,4 15,4 43 78 99 1.015 1.025 1.032 SSE 5,1 69,2 463,2
12/2019 3,9 8,9 15,8 12,2 9,2 15,6 22,7 18,8 35 71 98 1.002 1.018 1.032 O 7,3 93,3 397,4
11/2019 2,6 9,3 17,9 12,5 11,5 15,9 23,7 21,1 52 65 81 999 1.010 1.018 O 11,0 67,6 24,4
10/2019 8,9 14,0 17,3 18,1 14,0 22,3 30,4 21,5 29 69 94 1.008 1.016 1.021 OSO 4,2 51,5 84,2
09/2019 11,9 17,2 20,9 20,8 18,1 24,5 31,4 19,5 47 81 100 1.009 1.017 1.023 ENE 3,2 80,5 331,8
08/2019 16,6 19,4 26,3 24,4 23,7 29,6 38,6 22,0 30 71 91 1.009 1.015 1.019 E 2,9 37,0 212,2
Tots els anys disponibles
2019 1,1 12,1 26,3 16,4 8,9 20,8 38,6 37,5 28 67 100 995 1.016 1.033 E 5,0 93,3 1.771,2
Temperatura (°C)
Humitat relativa (%)
Velocitat del vent i ràfega màxima (km/h)
Direcció del vent (°)
Pressió (hPa)
Precipitació (mm)
Nota sobre les dades: s'avisa a l'usuari de la provisionalitat i no oficialitat d'aquestes dades
Logo AVAMET blanc
Web allotjada a Sollutia
Llicència de Creative CommonsLa web d'AVAMET i els seus continguts estan subjectes a una llicència de
Reconeixement - No Comercial - Compartir igual
Últimes estacions: Monteagudo del Castillo - El Portero (Limítrofe-Terol/Soci), Llocnou d'en Fenollet - El Molló (Soci), Castelló de la Plana - Grup Sant Agustí (Soci), Llíria - Urb. San Gerardo (Soci), Xàtiva - Ausiàs March (Soci), Gandia - Parpalló/Borrell (AVAMET), Olocau del Rei - La Magdalena (Electra/Soci), Ademuz - IES Ademuz (Soci), La Jana (Ajuntament Soci), - - -